createdAt,value
2019-02-21T00:00:00.219Z,1.50
2019-02-21T00:02:28.871Z,1.63
2019-02-21T00:04:57.230Z,1.60
2019-02-21T00:07:25.712Z,1.73
2019-02-21T00:09:54.265Z,1.70
2019-02-21T00:12:22.771Z,1.60
2019-02-21T00:14:51.227Z,1.50
2019-02-21T00:17:19.721Z,1.70
2019-02-21T00:19:48.295Z,1.63
2019-02-21T00:22:16.571Z,1.60
2019-02-21T00:24:44.875Z,1.53
2019-02-21T00:27:13.229Z,1.60
2019-02-21T00:29:41.553Z,1.70
2019-02-21T00:32:09.946Z,1.60
2019-02-21T00:34:38.498Z,1.77
2019-02-21T00:37:07.003Z,1.60
2019-02-21T00:39:35.363Z,1.73
2019-02-21T00:42:03.732Z,1.43
2019-02-21T00:44:32.101Z,1.70
2019-02-21T00:47:00.487Z,1.50
2019-02-21T00:49:28.856Z,1.80
2019-02-21T00:51:57.247Z,1.40
2019-02-21T00:54:25.741Z,1.60
2019-02-21T00:56:54.083Z,1.60
2019-02-21T00:59:22.437Z,1.53
2019-02-21T01:01:50.736Z,1.60
2019-02-21T01:04:19.027Z,1.53
2019-02-21T01:06:47.391Z,1.77
2019-02-21T01:09:15.785Z,1.63
2019-02-21T01:11:44.266Z,1.50
2019-02-21T01:14:12.630Z,1.30
2019-02-21T01:16:40.995Z,1.70
2019-02-21T01:19:09.364Z,1.57
2019-02-21T01:21:37.725Z,1.70
2019-02-21T01:24:06.306Z,1.70
2019-02-21T01:26:34.657Z,1.80
2019-02-21T01:29:02.958Z,1.63
2019-02-21T01:31:31.334Z,1.60
2019-02-21T01:33:59.712Z,1.63
2019-02-21T01:36:27.998Z,1.63
2019-02-21T01:38:56.379Z,1.70
2019-02-21T01:41:24.732Z,1.50
2019-02-21T01:43:53.040Z,1.60
2019-02-21T01:46:21.326Z,1.53
2019-02-21T01:48:49.636Z,1.60
2019-02-21T01:51:18.010Z,1.80
2019-02-21T01:53:46.317Z,1.70
2019-02-21T01:56:14.597Z,1.77
2019-02-21T01:58:42.904Z,1.60
2019-02-21T02:01:11.278Z,1.70
2019-02-21T02:03:39.702Z,1.60
2019-02-21T02:06:08.307Z,1.40
2019-02-21T02:08:36.680Z,1.63
2019-02-21T02:11:05.058Z,1.63
2019-02-21T02:13:33.518Z,1.73
2019-02-21T02:16:01.839Z,1.53
2019-02-21T02:18:30.388Z,1.67
2019-02-21T02:20:58.790Z,1.63
2019-02-21T02:23:27.100Z,1.80
2019-02-21T02:25:55.488Z,1.87
2019-02-21T02:28:23.801Z,1.73
2019-02-21T02:30:52.146Z,1.67
2019-02-21T02:33:20.531Z,1.70
2019-02-21T02:35:48.866Z,1.90
2019-02-21T02:38:17.240Z,1.70
2019-02-21T02:40:45.611Z,2.03
2019-02-21T02:43:13.999Z,1.70
2019-02-21T02:45:42.355Z,1.60
2019-02-21T02:48:10.735Z,1.57
2019-02-21T02:50:39.079Z,1.73
2019-02-21T02:53:07.380Z,1.87
2019-02-21T02:55:35.661Z,1.70
2019-02-21T02:58:06.423Z,1.80
2019-02-21T03:00:34.383Z,1.60
2019-02-21T03:03:02.746Z,1.67
2019-02-21T03:05:31.105Z,1.63
2019-02-21T03:07:59.405Z,1.80
2019-02-21T03:10:27.718Z,2.00
2019-02-21T03:12:56.026Z,1.70
2019-02-21T03:15:24.400Z,1.70
2019-02-21T03:17:52.696Z,1.80
2019-02-21T03:20:21.099Z,1.60
2019-02-21T03:22:49.536Z,2.00
2019-02-21T03:25:17.918Z,1.90
2019-02-21T03:27:46.266Z,1.90
2019-02-21T03:30:14.570Z,1.97
2019-02-21T03:32:43.010Z,1.70
2019-02-21T03:35:11.383Z,1.83
2019-02-21T03:37:39.833Z,1.57
2019-02-21T03:40:09.591Z,1.70
2019-02-21T03:42:37.942Z,1.83
2019-02-21T03:45:09.810Z,1.70
2019-02-21T03:47:38.169Z,2.10
2019-02-21T03:50:08.916Z,2.00
2019-02-21T03:52:37.208Z,1.83
2019-02-21T03:55:06.623Z,2.00
2019-02-21T03:57:35.057Z,1.73
2019-02-21T04:00:04.279Z,2.10
2019-02-21T04:02:32.628Z,1.80
2019-02-21T04:05:01.007Z,1.90
2019-02-21T04:07:29.370Z,1.77
2019-02-21T04:09:57.655Z,1.80
2019-02-21T04:12:26.072Z,1.80
2019-02-21T04:14:54.357Z,2.07
2019-02-21T04:17:22.658Z,1.90
2019-02-21T04:19:50.948Z,1.80
2019-02-21T04:22:19.242Z,1.90
2019-02-21T04:24:47.638Z,2.07
2019-02-21T04:27:16.038Z,1.73
2019-02-21T04:29:44.615Z,1.60
2019-02-21T04:32:17.059Z,1.50
2019-02-21T04:34:43.100Z,1.80
2019-02-21T04:37:11.544Z,1.60
2019-02-21T04:39:39.909Z,1.90
2019-02-21T04:42:08.191Z,1.87
2019-02-21T04:44:36.592Z,1.80
2019-02-21T04:47:04.940Z,1.90
2019-02-21T04:49:33.253Z,1.60
2019-02-21T04:52:01.624Z,1.80
2019-02-21T04:54:29.990Z,1.73
2019-02-21T04:56:58.362Z,2.03
2019-02-21T04:59:26.732Z,1.80
2019-02-21T05:01:55.095Z,1.63
2019-02-21T05:04:23.505Z,1.77
2019-02-21T05:06:51.863Z,1.67
2019-02-21T05:09:20.249Z,1.70
2019-02-21T05:11:48.615Z,1.80
2019-02-21T05:14:16.986Z,1.60
2019-02-21T05:16:45.358Z,1.70
2019-02-21T05:19:13.735Z,1.63
2019-02-21T05:21:42.304Z,1.50
2019-02-21T05:24:10.674Z,1.90
2019-02-21T05:26:49.986Z,1.83
2019-02-21T05:29:18.347Z,1.70
2019-02-21T05:31:48.353Z,1.70
2019-02-21T05:34:27.355Z,1.90
2019-02-21T05:37:03.312Z,1.67
2019-02-21T05:39:42.248Z,1.83
2019-02-21T05:42:12.255Z,1.73
2019-02-21T05:44:48.451Z,1.87
2019-02-21T05:47:18.439Z,1.63
2019-02-21T05:49:54.192Z,1.87
2019-02-21T05:52:24.129Z,1.97
2019-02-21T05:54:57.048Z,1.77
2019-02-21T05:57:35.987Z,1.70
2019-02-21T06:00:14.124Z,1.90
2019-02-21T06:02:59.077Z,1.70
2019-02-21T06:05:29.074Z,1.90
2019-02-21T06:08:04.791Z,1.77
2019-02-21T06:10:34.786Z,1.90
2019-02-21T06:13:10.811Z,1.80
2019-02-21T06:15:47.021Z,2.10
2019-02-21T06:18:20.006Z,1.83
2019-02-21T06:20:57.718Z,1.70
2019-02-21T06:23:45.892Z,1.50
2019-02-21T06:26:21.595Z,1.20
2019-02-21T06:28:53.450Z,1.53
2019-02-21T06:31:21.780Z,1.30
2019-02-21T06:33:50.180Z,1.40
2019-02-21T06:36:18.551Z,1.10
2019-02-21T06:38:46.906Z,1.10
2019-02-21T06:41:15.267Z,1.10
2019-02-21T06:43:43.688Z,1.07
2019-02-21T06:46:13.796Z,1.10
2019-02-21T06:48:42.080Z,1.30
2019-02-21T06:51:10.396Z,1.10
2019-02-21T06:53:38.760Z,1.20
2019-02-21T06:56:07.161Z,1.17
2019-02-21T06:58:35.592Z,1.03
2019-02-21T07:01:03.900Z,1.23
2019-02-21T07:03:32.257Z,1.73
2019-02-21T07:06:00.633Z,1.70
2019-02-21T07:08:28.995Z,1.90
2019-02-21T07:11:05.785Z,1.53
2019-02-21T07:13:27.318Z,1.77
2019-02-21T07:15:55.679Z,1.73
2019-02-21T07:18:23.958Z,1.57
2019-02-21T07:20:52.281Z,1.70
2019-02-21T07:23:21.207Z,1.70
2019-02-21T07:25:50.810Z,1.80
2019-02-21T07:28:19.260Z,1.77
2019-02-21T07:30:48.341Z,1.60
2019-02-21T07:33:27.767Z,1.60
2019-02-21T07:35:46.673Z,1.70
2019-02-21T07:38:17.089Z,1.80
2019-02-21T07:40:45.149Z,1.60
2019-02-21T07:43:13.500Z,2.00
2019-02-21T07:45:41.887Z,1.77
2019-02-21T07:48:10.264Z,1.63
2019-02-21T07:50:38.638Z,1.73
2019-02-21T07:53:07.109Z,1.70
2019-02-21T07:55:35.480Z,1.90
2019-02-21T07:58:04.195Z,1.67
2019-02-21T08:00:32.814Z,1.90
2019-02-21T08:03:01.172Z,1.70
2019-02-21T08:05:29.565Z,1.70
2019-02-21T08:07:57.926Z,1.67
2019-02-21T08:10:33.680Z,1.60
2019-02-21T08:12:56.349Z,1.70
2019-02-21T08:15:27.534Z,1.80
2019-02-21T08:17:54.766Z,1.57
2019-02-21T08:20:33.577Z,1.60
2019-02-21T08:22:53.180Z,1.83
2019-02-21T08:25:21.631Z,1.67
2019-02-21T08:27:50.009Z,1.67
2019-02-21T08:30:18.380Z,1.80
2019-02-21T08:33:00.489Z,1.80
2019-02-21T08:35:29.690Z,1.80
2019-02-21T08:37:58.002Z,1.80
2019-02-21T08:40:26.367Z,1.60
2019-02-21T08:42:54.677Z,1.80
2019-02-21T08:45:23.042Z,1.70
2019-02-21T08:47:51.425Z,1.60
2019-02-21T08:50:22.080Z,1.70
2019-02-21T08:52:49.811Z,1.60
2019-02-21T08:55:18.088Z,1.70
2019-02-21T08:57:46.402Z,1.80
2019-02-21T09:00:15.795Z,1.80
2019-02-21T09:02:44.085Z,1.90
2019-02-21T09:05:13.190Z,1.80
2019-02-21T09:07:41.556Z,1.50
2019-02-21T09:10:11.764Z,1.77
2019-02-21T09:12:40.137Z,1.80
2019-02-21T09:15:11.515Z,2.10
2019-02-21T09:17:39.903Z,1.90
2019-02-21T09:20:09.791Z,1.80
2019-02-21T09:22:38.379Z,2.20
2019-02-21T09:25:09.614Z,1.87
2019-02-21T09:27:37.963Z,1.97
2019-02-21T09:30:12.075Z,2.03
2019-02-21T09:32:54.636Z,1.90
2019-02-21T09:35:23.029Z,1.70
2019-02-21T09:37:51.433Z,1.90
2019-02-21T09:40:19.773Z,2.13
2019-02-21T09:42:48.136Z,2.20
2019-02-21T09:45:18.148Z,2.17
2019-02-21T09:47:46.451Z,2.10
2019-02-21T09:50:14.822Z,2.30
2019-02-21T09:52:43.131Z,2.10
2019-02-21T09:55:16.583Z,2.10
2019-02-21T09:57:44.924Z,2.17
2019-02-21T10:00:18.322Z,2.17
2019-02-21T10:02:46.665Z,2.00
2019-02-21T10:05:14.970Z,2.23
2019-02-21T10:07:43.375Z,2.00
2019-02-21T10:10:19.309Z,2.20
2019-02-21T10:12:47.803Z,2.10
2019-02-21T10:15:16.749Z,2.20
2019-02-21T10:17:45.124Z,2.40
2019-02-21T10:20:22.862Z,2.33
2019-02-21T10:22:51.273Z,2.30
2019-02-21T10:25:23.202Z,2.17
2019-02-21T10:27:51.833Z,2.27
2019-02-21T10:30:22.347Z,2.50
2019-02-21T10:32:50.809Z,2.23
2019-02-21T10:35:19.097Z,2.90
2019-02-21T10:37:47.390Z,2.83
2019-02-21T10:40:16.371Z,2.90
2019-02-21T10:42:44.723Z,2.40
2019-02-21T10:45:14.866Z,2.50
2019-02-21T10:47:43.232Z,2.83
2019-02-21T10:50:15.043Z,2.60
2019-02-21T10:52:43.403Z,2.30
2019-02-21T10:55:11.841Z,2.60
2019-02-21T10:57:40.149Z,2.53
2019-02-21T11:00:11.763Z,2.70
2019-02-21T11:02:40.070Z,2.33
2019-02-21T11:05:09.693Z,2.37
2019-02-21T11:07:38.071Z,2.53
2019-02-21T11:10:09.355Z,2.33
2019-02-21T11:12:37.766Z,2.70
2019-02-21T11:15:14.516Z,2.30
2019-02-21T11:17:42.887Z,2.40
2019-02-21T11:20:19.121Z,2.40
2019-02-21T11:22:47.508Z,2.40
2019-02-21T11:25:15.884Z,2.47
2019-02-21T11:27:44.274Z,2.50
2019-02-21T11:30:18.104Z,2.40
2019-02-21T11:32:46.402Z,2.67
2019-02-21T11:35:14.773Z,2.47
2019-02-21T11:37:46.562Z,2.00
2019-02-21T11:40:14.857Z,2.20
2019-02-21T11:42:43.634Z,2.50
2019-02-21T11:45:16.087Z,2.50
2019-02-21T11:47:44.500Z,2.17
2019-02-21T11:50:17.962Z,2.30
2019-02-21T11:52:46.315Z,2.00
2019-02-21T11:55:17.939Z,2.43
2019-02-21T11:57:46.422Z,1.93
2019-02-21T12:00:19.877Z,2.03
2019-02-21T12:02:48.218Z,2.17
2019-02-21T12:05:17.757Z,2.10
2019-02-21T12:07:46.438Z,2.30
2019-02-21T12:10:14.750Z,2.10
2019-02-21T12:12:43.041Z,2.00
2019-02-21T12:15:15.704Z,1.83
2019-02-21T12:17:43.987Z,1.97
2019-02-21T12:20:17.139Z,2.10
2019-02-21T12:22:45.500Z,2.10
2019-02-21T12:25:16.784Z,2.00
2019-02-21T12:27:45.139Z,1.97
2019-02-21T12:30:18.031Z,2.00
2019-02-21T12:32:46.479Z,1.60
2019-02-21T12:35:14.845Z,1.87
2019-02-21T12:37:43.143Z,1.83
2019-02-21T12:40:14.259Z,1.90
2019-02-21T12:42:42.648Z,1.80
2019-02-21T12:45:15.714Z,1.90
2019-02-21T12:47:50.912Z,1.77
2019-02-21T12:50:14.497Z,1.70
2019-02-21T12:52:42.866Z,1.70
2019-02-21T12:55:11.698Z,1.60
2019-02-21T12:57:40.058Z,1.53
2019-02-21T13:00:11.706Z,1.67
2019-02-21T13:02:40.074Z,1.90
2019-02-21T13:05:08.454Z,1.60
2019-02-21T13:07:36.804Z,1.70
2019-02-21T13:10:08.344Z,1.70
2019-02-21T13:12:36.704Z,1.47
2019-02-21T13:15:07.340Z,1.90
2019-02-21T13:17:35.719Z,1.60
2019-02-21T13:20:06.736Z,1.37
2019-02-21T13:22:35.026Z,1.70
2019-02-21T13:25:03.329Z,1.50
2019-02-21T13:27:31.696Z,1.60
2019-02-21T13:30:00.326Z,1.70
2019-02-21T13:32:28.957Z,1.30
2019-02-21T13:34:57.328Z,1.57
2019-02-21T13:37:28.776Z,1.60
2019-02-21T13:39:55.742Z,1.53
2019-02-21T13:42:24.015Z,1.53
2019-02-21T13:44:52.321Z,1.37
2019-02-21T13:47:20.680Z,1.60
2019-02-21T13:49:48.983Z,1.50
2019-02-21T13:52:17.439Z,1.53
2019-02-21T13:54:45.868Z,1.50
2019-02-21T13:57:14.222Z,1.50
2019-02-21T13:59:42.599Z,1.53
2019-02-21T14:02:10.967Z,1.37
2019-02-21T14:04:39.519Z,1.30
2019-02-21T14:07:07.824Z,1.33
2019-02-21T14:09:37.987Z,1.30
2019-02-21T14:12:06.163Z,1.17
2019-02-21T14:14:34.493Z,1.20
2019-02-21T14:17:02.852Z,1.40
2019-02-21T14:19:31.174Z,1.23
2019-02-21T14:21:59.547Z,1.27
2019-02-21T14:24:36.282Z,1.00
2019-02-21T14:26:57.948Z,1.30
2019-02-21T14:29:26.339Z,1.10
2019-02-21T14:31:54.813Z,1.20
2019-02-21T14:34:23.240Z,0.93
2019-02-21T14:36:51.784Z,1.10
2019-02-21T14:39:20.214Z,1.07
2019-02-21T14:41:48.608Z,1.20
2019-02-21T14:44:17.102Z,1.20
2019-02-21T14:46:45.434Z,1.00
2019-02-21T14:49:13.875Z,1.00
2019-02-21T14:51:42.249Z,0.97
2019-02-21T14:54:10.595Z,1.00
2019-02-21T14:56:38.892Z,0.90
2019-02-21T14:59:07.175Z,0.83
2019-02-21T15:01:35.554Z,1.17
2019-02-21T15:04:04.056Z,1.00
2019-02-21T15:06:32.559Z,0.80
2019-02-21T15:09:00.979Z,1.07
2019-02-21T15:11:29.292Z,1.00
2019-02-21T15:13:57.664Z,0.87
2019-02-21T15:16:26.043Z,1.00
2019-02-21T15:18:55.432Z,1.10
2019-02-21T15:21:23.810Z,1.00
2019-02-21T15:23:52.197Z,1.00
2019-02-21T15:26:20.623Z,0.90
2019-02-21T15:28:49.035Z,1.00
2019-02-21T15:31:17.375Z,0.93
2019-02-21T15:33:45.758Z,0.97
2019-02-21T15:36:14.121Z,0.87
2019-02-21T15:38:48.412Z,1.00
2019-02-21T15:41:16.714Z,0.90
2019-02-21T15:43:45.023Z,1.00
2019-02-21T15:46:13.495Z,0.83
2019-02-21T15:48:44.415Z,0.93
2019-02-21T15:51:11.891Z,0.90
2019-02-21T15:53:40.257Z,0.97
2019-02-21T15:56:08.578Z,0.73
2019-02-21T15:58:36.930Z,0.80
2019-02-21T16:01:05.304Z,0.73
2019-02-21T16:03:33.659Z,0.93
2019-02-21T16:06:02.038Z,0.90
2019-02-21T16:08:30.422Z,0.83
2019-02-21T16:10:58.774Z,0.83
2019-02-21T16:13:27.452Z,0.90
2019-02-21T16:15:55.942Z,0.83
2019-02-21T16:18:24.239Z,0.70
2019-02-21T16:20:53.106Z,0.80
2019-02-21T16:23:21.511Z,0.80
2019-02-21T16:25:49.957Z,0.93
2019-02-21T16:28:18.340Z,0.90
2019-02-21T16:30:46.711Z,0.70
2019-02-21T16:33:15.076Z,0.70
2019-02-21T16:35:45.019Z,0.87
2019-02-21T16:38:13.770Z,0.80
2019-02-21T16:40:42.052Z,0.70
2019-02-21T16:43:11.245Z,0.80
2019-02-21T16:45:43.407Z,0.80
2019-02-21T16:48:09.565Z,0.80
2019-02-21T16:50:38.815Z,0.80
2019-02-21T16:53:07.107Z,0.80
2019-02-21T16:55:35.403Z,0.80
2019-02-21T16:58:03.709Z,0.80
2019-02-21T17:00:47.339Z,0.67
2019-02-21T17:03:02.136Z,0.80
2019-02-21T17:05:30.627Z,0.73
2019-02-21T17:07:58.975Z,0.77
2019-02-21T17:10:27.263Z,0.90
2019-02-21T17:13:02.518Z,0.80
2019-02-21T17:15:31.674Z,0.80
2019-02-21T17:18:03.743Z,0.80
2019-02-21T17:20:30.474Z,0.70
2019-02-21T17:22:59.187Z,0.90
2019-02-21T17:25:28.143Z,0.80
2019-02-21T17:38:38.792Z,0.50
2019-02-21T17:41:07.148Z,0.60
2019-02-21T17:43:35.518Z,0.77
2019-02-21T17:46:03.894Z,0.60
2019-02-21T17:48:32.214Z,0.63
2019-02-21T17:51:00.566Z,0.67
2019-02-21T17:53:28.916Z,0.70
2019-02-21T17:55:57.298Z,0.70
2019-02-21T17:58:25.660Z,0.80
2019-02-21T18:00:54.040Z,0.80
2019-02-21T18:03:22.422Z,0.70
2019-02-21T18:05:50.792Z,0.70
2019-02-21T18:08:19.241Z,0.70
2019-02-21T18:10:47.639Z,0.70
2019-02-21T18:13:16.179Z,0.70
2019-02-21T18:15:44.522Z,0.60
2019-02-21T18:18:12.964Z,0.70
2019-02-21T18:20:41.269Z,0.90
2019-02-21T18:23:09.721Z,0.80
2019-02-21T18:25:44.071Z,0.70
2019-02-21T18:28:12.465Z,0.80
2019-02-21T18:30:40.907Z,0.77
2019-02-21T18:33:09.198Z,0.70
2019-02-21T18:35:37.721Z,0.70
2019-02-21T18:38:06.028Z,0.87
2019-02-21T18:40:34.347Z,0.80
2019-02-21T18:43:02.645Z,0.80
2019-02-21T18:45:31.021Z,0.60
2019-02-21T18:47:59.485Z,0.80
2019-02-21T18:50:37.684Z,0.70
2019-02-21T18:52:57.909Z,0.90
2019-02-21T18:55:26.271Z,0.70
2019-02-21T18:57:54.652Z,0.90
2019-02-21T19:00:25.977Z,0.93
2019-02-21T19:02:54.293Z,0.90
2019-02-21T19:05:22.657Z,0.70
2019-02-21T19:07:58.845Z,0.73
2019-02-21T19:10:22.370Z,0.70
2019-02-21T19:12:50.811Z,0.90
2019-02-21T19:15:20.349Z,0.80
2019-02-21T19:17:48.766Z,1.00
2019-02-21T19:20:18.554Z,0.80
2019-02-21T19:22:46.941Z,0.70
2019-02-21T19:25:15.323Z,0.80
2019-02-21T19:27:43.942Z,0.93
2019-02-21T19:30:18.256Z,0.83
2019-02-21T19:32:46.734Z,0.73
2019-02-21T19:35:15.682Z,0.77
2019-02-21T19:37:44.052Z,0.90
2019-02-21T19:40:12.426Z,0.90
2019-02-21T19:42:40.914Z,0.80
2019-02-21T19:45:09.570Z,0.70
2019-02-21T19:47:37.929Z,0.73
2019-02-21T19:50:08.371Z,0.70
2019-02-21T19:52:36.781Z,0.90
2019-02-21T19:55:07.504Z,0.90
2019-02-21T19:57:35.884Z,0.90
2019-02-21T20:00:06.021Z,0.80
2019-02-21T20:02:34.453Z,0.80
2019-02-21T20:05:02.900Z,0.90
2019-02-21T20:07:31.267Z,0.70
2019-02-21T20:09:59.631Z,0.70
2019-02-21T20:12:28.214Z,0.77
2019-02-21T20:14:56.505Z,0.80
2019-02-21T20:17:24.987Z,0.80
2019-02-21T20:19:53.362Z,0.73
2019-02-21T20:22:21.814Z,0.70
2019-02-21T20:24:50.285Z,0.80
2019-02-21T20:27:18.649Z,0.70
2019-02-21T20:30:08.102Z,0.87
2019-02-21T20:32:36.462Z,0.83
2019-02-21T20:35:05.627Z,0.80
2019-02-21T20:37:34.051Z,0.70
2019-02-21T20:40:02.536Z,0.80
2019-02-21T20:42:31.671Z,0.80
2019-02-21T20:45:00.185Z,0.90
2019-02-21T20:47:28.810Z,0.90
2019-02-21T20:49:57.214Z,0.80
2019-02-21T20:52:25.636Z,0.70
2019-02-21T20:54:54.021Z,0.90
2019-02-21T20:57:22.388Z,0.80
2019-02-21T20:59:50.878Z,0.77
2019-02-21T21:02:19.276Z,0.80
2019-02-21T21:04:47.884Z,0.80
2019-02-21T21:07:24.863Z,0.70
2019-02-21T21:09:46.398Z,0.80
2019-02-21T21:12:14.980Z,0.90
2019-02-21T21:14:43.334Z,0.67
2019-02-21T21:17:11.778Z,0.77
2019-02-21T21:19:40.153Z,0.80
2019-02-21T21:22:08.511Z,0.80
2019-02-21T21:24:36.905Z,0.83
2019-02-21T21:27:05.402Z,0.80
2019-02-21T21:29:33.703Z,0.80
2019-02-21T21:32:02.005Z,0.70
2019-02-21T21:34:30.303Z,0.90
2019-02-21T21:36:58.604Z,0.93
2019-02-21T21:39:26.907Z,0.70
2019-02-21T21:41:55.342Z,0.70
2019-02-21T21:44:23.733Z,0.80
2019-02-21T21:46:52.028Z,0.70
2019-02-21T21:49:20.405Z,0.70
2019-02-21T21:51:48.789Z,0.80
2019-02-21T21:54:17.259Z,0.80
2019-02-21T21:56:45.667Z,0.87
2019-02-21T21:59:13.994Z,0.63
2019-02-21T22:01:42.411Z,0.80
2019-02-21T22:04:10.813Z,0.90
2019-02-21T22:06:39.176Z,0.73
2019-02-21T22:09:07.494Z,0.77
2019-02-21T22:11:35.856Z,0.80
2019-02-21T22:14:04.164Z,0.70
2019-02-21T22:16:32.580Z,0.80
2019-02-21T22:19:00.976Z,0.70
2019-02-21T22:21:29.296Z,0.80
2019-02-21T22:23:57.612Z,0.80
2019-02-21T22:26:25.980Z,0.90
2019-02-21T22:28:54.476Z,0.90
2019-02-21T22:31:22.812Z,0.70
2019-02-21T22:33:51.142Z,0.90
2019-02-21T22:36:19.697Z,0.80
2019-02-21T22:38:48.234Z,1.00
2019-02-21T22:41:16.625Z,0.90
2019-02-21T22:43:45.044Z,0.80
2019-02-21T22:46:13.483Z,0.90
2019-02-21T22:48:47.280Z,0.83
2019-02-21T22:51:11.852Z,0.90
2019-02-21T22:53:40.568Z,0.90
2019-02-21T22:56:08.926Z,0.80
2019-02-21T22:58:44.657Z,0.90
2019-02-21T23:01:28.300Z,0.80
2019-02-21T23:04:00.011Z,0.90
2019-02-21T23:06:40.583Z,0.90
2019-02-21T23:09:13.169Z,0.70
2019-02-21T23:11:40.698Z,0.83
2019-02-21T23:14:08.991Z,0.93
2019-02-21T23:16:37.360Z,0.90
2019-02-21T23:19:05.722Z,1.03
2019-02-21T23:21:34.094Z,0.80
2019-02-21T23:24:02.404Z,0.80
2019-02-21T23:26:30.779Z,0.90
2019-02-21T23:28:59.067Z,0.90
2019-02-21T23:31:27.365Z,0.90
2019-02-21T23:33:57.398Z,0.90
2019-02-21T23:36:25.698Z,0.97
2019-02-21T23:38:53.988Z,1.00
2019-02-21T23:41:22.407Z,0.80
2019-02-21T23:43:50.687Z,1.03
2019-02-21T23:46:19.077Z,1.00
2019-02-21T23:48:47.427Z,0.90
2019-02-21T23:51:15.791Z,0.80
2019-02-21T23:53:44.086Z,1.10
2019-02-21T23:56:12.445Z,1.00
2019-02-21T23:58:40.921Z,0.80
